Time;durP1;ratioP1;P1;durP2;ratioP2;P2;SDS_P1;SDS_P2;PMS_P1;PMS_P2;Temp;Humidity;BMP_temperature;BMP_pressure;BME280_temperature;BME280_humidity;BME280_pressure;Samples;Min_cycle;Max_cycle;Signal;HPM_P1;HPM_P2
2021/09/03 04:58:41;;;;;;;38.97;23.83;;;13.20;99.90;;;;;;6150174;23;20211;-85
2021/09/03 05:08:35;;;;;;;29.80;22.52;;;13.40;99.90;;;;;;5882968;24;20257;-86
2021/09/03 05:11:07;;;;;;;33.38;23.25;;;13.40;99.90;;;;;;5936498;24;20185;-85
2021/09/03 05:17:25;;;;;;;31.55;20.90;;;13.50;99.90;;;;;;6026495;23;20192;-86
2021/09/03 05:19:53;;;;;;;32.50;20.90;;;13.60;99.90;;;;;;6119335;23;20392;-85
2021/09/03 05:22:21;;;;;;;25.80;19.25;;;13.70;99.90;;;;;;6148550;23;20186;-87
2021/09/03 05:24:49;;;;;;;30.10;19.42;;;13.80;99.90;;;;;;6142002;23;20181;-88
2021/09/03 05:27:20;;;;;;;30.80;19.75;;;13.90;99.90;;;;;;6135375;23;20208;-84
2021/09/03 05:29:50;;;;;;;30.48;20.50;;;14.00;99.90;;;;;;6134278;23;20244;-86
2021/09/03 05:32:20;;;;;;;27.33;16.42;;;14.10;99.90;;;;;;6133972;23;20196;-86
2021/09/03 05:34:48;;;;;;;29.95;18.80;;;14.20;99.90;;;;;;6133545;23;20189;-85
2021/09/03 05:38:08;;;;;;;24.17;15.80;;;14.40;99.90;;;;;;6133281;23;20706;-87
2021/09/03 05:44:01;;;;;;;21.85;15.00;;;15.40;99.90;;;;;;6126846;23;20241;-86
2021/09/03 05:46:43;;;;;;;20.02;13.77;;;16.20;99.90;;;;;;6131548;23;20179;-86
2021/09/03 05:49:39;;;;;;;28.70;14.50;;;16.90;99.90;;;;;;6134901;23;20169;-86
2021/09/03 05:52:18;;;;;;;20.93;17.37;;;17.50;99.90;;;;;;6134690;23;20268;-86
2021/09/03 05:55:04;;;;;;;23.87;15.57;;;17.70;99.90;;;;;;6138993;23;20499;-87
2021/09/03 05:57:31;;;;;;;21.60;14.80;;;17.70;99.90;;;;;;6133934;23;20479;-86
2021/09/03 06:03:28;;;;;;;24.35;14.13;;;17.70;99.90;;;;;;6073002;23;20462;-87
2021/09/03 06:19:01;;;;;;;24.17;15.77;;;17.00;99.90;;;;;;6155374;23;20194;-73
2021/09/03 06:21:28;;;;;;;26.33;16.35;;;16.90;99.90;;;;;;6156255;23;20167;-72
2021/09/03 06:23:55;;;;;;;30.02;15.27;;;16.80;99.90;;;;;;6156652;23;20490;-75
2021/09/03 06:26:22;;;;;;;18.67;12.13;;;16.80;99.90;;;;;;6141035;23;20281;-75
2021/09/03 06:28:51;;;;;;;24.02;15.85;;;16.70;99.90;;;;;;6126421;23;20229;-76
2021/09/03 06:31:18;;;;;;;22.77;14.80;;;16.70;99.90;;;;;;6126874;23;20191;-75
2021/09/03 18:18:26;;;;;;;17.07;12.10;;;18.10;99.90;;;;;;6107072;23;20438;-80
2021/09/03 18:20:57;;;;;;;16.70;12.37;;;18.00;99.90;;;;;;6105173;23;20420;-82
2021/09/03 18:23:24;;;;;;;16.33;12.20;;;18.00;99.90;;;;;;6107206;23;20390;-83
2021/09/03 18:25:52;;;;;;;23.10;12.47;;;17.90;99.90;;;;;;6107597;23;20401;-84
2021/09/03 18:28:19;;;;;;;15.53;11.57;;;17.90;99.90;;;;;;6107523;23;20453;-82
2021/09/03 18:30:47;;;;;;;21.17;13.20;;;17.90;99.90;;;;;;6107667;23;20404;-87
2021/09/03 18:33:14;;;;;;;16.03;12.60;;;17.90;99.90;;;;;;6106287;23;20797;-86
2021/09/03 18:35:56;;;;;;;18.50;13.00;;;17.90;99.90;;;;;;6106185;23;20478;-85
2021/09/03 18:38:23;;;;;;;33.03;14.17;;;17.80;99.90;;;;;;6110352;23;20912;-85
2021/09/03 18:40:50;;;;;;;20.33;12.73;;;17.90;99.90;;;;;;6115520;23;20405;-85
2021/09/03 18:43:20;;;;;;;17.53;12.47;;;17.80;99.90;;;;;;6110702;23;20413;-85
2021/09/03 18:49:34;;;;;;;33.07;18.90;;;17.90;99.90;;;;;;5991644;24;20581;-86
2021/09/03 18:52:51;;;;;;;16.40;12.00;;;17.70;99.90;;;;;;5995246;24;20407;-87
2021/09/03 18:55:23;;;;;;;19.03;13.80;;;17.70;99.90;;;;;;5972037;24;20429;-86
2021/09/03 18:57:57;;;;;;;17.60;12.70;;;17.70;99.90;;;;;;5987686;23;20421;-87
2021/09/03 19:00:27;;;;;;;18.13;12.20;;;17.70;99.90;;;;;;6080802;23;20417;-86
2021/09/03 19:03:08;;;;;;;18.30;12.77;;;17.70;99.90;;;;;;6107750;23;20412;-85
2021/09/03 19:05:40;;;;;;;22.73;14.30;;;17.70;99.90;;;;;;6104931;23;21126;-86
2021/09/03 19:08:07;;;;;;;19.27;12.27;;;17.50;99.90;;;;;;6104398;23;20497;-85
2021/09/03 19:10:39;;;;;;;37.17;25.70;;;17.60;99.90;;;;;;6106337;23;20463;-86
2021/09/03 19:13:06;;;;;;;17.83;12.43;;;17.60;99.90;;;;;;6107654;23;20410;-85
2021/09/03 19:15:42;;;;;;;17.63;13.90;;;17.70;99.90;;;;;;6106917;23;20401;-86
2021/09/03 19:18:15;;;;;;;19.63;13.27;;;17.70;99.90;;;;;;6132486;23;20535;-86
2021/09/03 19:23:38;;;;;;;18.73;11.80;;;17.70;99.90;;;;;;6130339;23;20427;-84
2021/09/03 19:26:06;;;;;;;17.43;10.50;;;17.70;99.90;;;;;;6138653;23;20416;-85
2021/09/03 19:28:41;;;;;;;16.30;11.70;;;17.70;99.90;;;;;;6138949;23;20459;-84
2021/09/03 19:31:13;;;;;;;23.53;12.90;;;17.70;99.90;;;;;;6143852;23;20393;-83
2021/09/03 19:33:45;;;;;;;18.40;12.57;;;17.60;99.90;;;;;;6137728;23;20425;-84
2021/09/03 19:36:22;;;;;;;19.20;11.77;;;17.50;99.90;;;;;;6138083;23;20197;-82
2021/09/03 19:39:14;;;;;;;20.00;13.02;;;17.50;99.90;;;;;;6139272;23;20169;-83
2021/09/03 19:41:46;;;;;;;19.17;13.75;;;17.50;99.90;;;;;;6138957;23;20195;-84
2021/09/03 19:44:46;;;;;;;21.20;12.50;;;17.50;99.90;;;;;;6138321;23;20208;-84
2021/09/03 21:34:15;;;;;;;11.43;5.35;;;17.20;99.90;;;;;;6103348;23;20288;-86
2021/09/03 21:36:43;;;;;;;8.77;4.70;;;17.20;99.90;;;;;;6106702;23;20203;-86
2021/09/03 21:39:53;;;;;;;8.02;4.53;;;17.40;99.90;;;;;;6108896;23;20187;-86
2021/09/03 21:42:49;;;;;;;;;;;;;;;;;;;;;
2021/09/03 21:45:51;;;;;;;6.03;4.30;;;17.10;99.90;;;;;;6028062;23;20189;-85
2021/09/03 21:48:31;;;;;;;10.15;5.10;;;17.00;99.90;;;;;;6025861;23;20215;-86
2021/09/03 21:51:33;;;;;;;8.48;4.35;;;17.10;99.90;;;;;;6022671;23;20190;-86
2021/09/03 21:54:20;;;;;;;6.50;4.63;;;17.00;99.90;;;;;;5997594;23;20367;-85
2021/09/03 21:57:06;;;;;;;9.18;4.10;;;17.00;99.90;;;;;;6111245;23;20255;-84
2021/09/03 21:59:46;;;;;;;9.63;5.57;;;17.00;99.90;;;;;;6109229;23;20176;-86
2021/09/03 22:02:26;;;;;;;7.23;4.70;;;16.90;99.90;;;;;;6115545;23;20209;-86
2021/09/03 22:05:22;;;;;;;8.30;5.70;;;16.70;99.90;;;;;;6112514;23;20519;-85
2021/09/03 22:08:08;;;;;;;8.27;4.80;;;16.80;99.90;;;;;;6110394;23;20205;-86
2021/09/03 22:10:55;;;;;;;10.68;5.45;;;16.60;99.90;;;;;;6106714;23;20179;-87
2021/09/03 22:13:46;;;;;;;10.02;5.97;;;16.80;99.90;;;;;;6114617;23;20177;-85
2021/09/03 22:19:18;;;;;;;7.63;5.32;;;16.70;99.90;;;;;;6108925;23;20251;-86
2021/09/03 22:21:56;;;;;;;9.73;6.20;;;16.60;99.90;;;;;;6109154;23;20211;-86
2021/09/03 22:24:31;;;;;;;9.07;5.32;;;16.70;99.90;;;;;;6108794;23;20228;-85
2021/09/03 22:27:27;;;;;;;7.05;5.25;;;16.60;99.90;;;;;;6108882;23;20197;-86
2021/09/03 22:29:58;;;;;;;9.88;5.82;;;16.70;99.90;;;;;;6112844;23;20203;-84
2021/09/03 22:32:52;;;;;;;11.20;5.82;;;16.50;99.90;;;;;;6108457;23;20242;-86
2021/09/03 22:35:28;;;;;;;11.73;6.30;;;16.60;99.90;;;;;;6129557;23;20635;-86
2021/09/03 22:37:58;;;;;;;9.40;5.10;;;16.60;99.90;;;;;;6137598;23;20218;-85
2021/09/03 22:40:25;;;;;;;16.60;6.25;;;16.60;99.90;;;;;;6138492;23;20185;-85
2021/09/03 22:43:02;;;;;;;10.70;6.50;;;16.60;99.90;;;;;;6139981;23;20228;-85
2021/09/03 22:45:35;;;;;;;7.80;5.25;;;16.70;99.90;;;;;;6137267;23;20190;-87
2021/09/03 22:48:10;;;;;;;8.80;5.72;;;16.60;99.90;;;;;;6137116;23;20287;-86
2021/09/03 22:50:47;;;;;;;10.10;4.53;;;16.50;99.90;;;;;;6136536;23;20215;-85
2021/09/03 22:53:16;;;;;;;7.25;4.47;;;16.40;99.90;;;;;;6134055;23;20231;-86
2021/09/03 22:55:55;;;;;;;11.98;5.38;;;16.50;99.90;;;;;;6134995;23;20632;-86
2021/09/03 22:58:29;;;;;;;7.50;5.15;;;16.50;99.90;;;;;;6134564;23;20182;-85
2021/09/03 23:00:57;;;;;;;8.13;5.75;;;16.50;99.90;;;;;;6135779;23;20171;-85
2021/09/03 23:03:27;;;;;;;12.70;6.88;;;16.50;99.90;;;;;;6137284;23;20186;-85
2021/09/03 23:05:57;;;;;;;7.32;4.88;;;16.40;99.90;;;;;;6138478;23;20174;-86
2021/09/03 23:08:42;;;;;;;10.35;5.22;;;16.50;99.90;;;;;;6137825;23;20198;-85
2021/09/03 23:11:28;;;;;;;12.30;5.13;;;16.30;99.90;;;;;;6133945;23;20246;-85
2021/09/03 23:13:59;;;;;;;11.68;5.20;;;16.50;99.90;;;;;;6135564;23;20166;-85
2021/09/03 23:16:45;;;;;;;8.40;4.90;;;16.40;99.90;;;;;;6137144;23;20166;-85
2021/09/03 23:19:37;;;;;;;17.80;5.15;;;16.50;99.90;;;;;;6136251;23;20181;-84
2021/09/03 23:22:26;;;;;;;9.35;4.97;;;16.50;99.90;;;;;;6135549;23;20211;-85
2021/09/03 23:24:59;;;;;;;5.55;4.05;;;16.30;99.90;;;;;;6137920;23;20175;-85
2021/09/03 23:27:27;;;;;;;10.02;4.65;;;16.40;99.90;;;;;;6134509;23;20713;-86
2021/09/03 23:30:10;;;;;;;6.70;4.22;;;16.40;99.90;;;;;;6133742;23;20226;-85
2021/09/03 23:32:58;;;;;;;7.93;3.85;;;16.40;99.90;;;;;;6132596;23;20179;-85
2021/09/03 23:38:12;;;;;;;5.80;4.55;;;16.40;99.90;;;;;;6133601;23;20218;-86
2021/09/03 23:40:39;;;;;;;9.43;4.43;;;16.40;99.90;;;;;;6134384;23;20222;-85
2021/09/03 23:43:10;;;;;;;7.55;3.75;;;16.40;99.90;;;;;;6134186;23;20174;-86
2021/09/03 23:45:39;;;;;;;7.10;3.38;;;16.40;99.90;;;;;;6134643;23;20179;-86
2021/09/03 23:48:09;;;;;;;10.27;4.20;;;16.40;99.90;;;;;;6134062;23;20201;-85
2021/09/03 23:50:40;;;;;;;4.68;3.92;;;16.40;99.90;;;;;;6134510;23;20214;-86
2021/09/03 23:53:07;;;;;;;8.10;3.88;;;16.40;99.90;;;;;;6134824;23;20178;-86
2021/09/03 23:55:35;;;;;;;10.85;4.05;;;16.40;99.90;;;;;;6133554;23;20178;-87
2021/09/03 23:58:04;;;;;;;6.03;3.47;;;16.30;99.90;;;;;;6133263;23;20222;-86
